• Join FlightAware (Why Join?)
  • Login
  • US Flag 
07:46AM EDT


 

Airport Tracker/Info


-or-


 

Live Flight TrackerFlight Track Log ✈ UAL4563 ✈ 30-Jul-2013 ✈ KORD - KLAN

Flight Track Log - Related Links

Times and Time Zones

All times are in EDT time to prevent confusion due to time zone crossing. See the UAL4563 flight status page for this flight to view local times or setup timezone preferences in your user account.

Time Position Orientation Groundspeed Altitude Reporting Facility
EDT Latitude Longitude Course Direction KTS MPH feet Rate Location/Type
03:30PM 41.9667 -87.8500 66° East 180 207 2,700  Level Chicago TRACON
03:31PM 41.9667 -87.7667 90° East 234 269 4,700 1,800 Climbing Chicago TRACON
03:32PM 42.0833 -87.5771 90° East  Level FlightAware Approximate
03:32PM 41.9575 -87.7033 101° East 250 288 6,100  Level Chicago Center
03:33PM 42.1265 -87.4696 59° Northeast  Level FlightAware Approximate
03:33PM 42.0006 -87.5953 62° Northeast 286 329 8,900  Level Chicago Center
03:34PM 42.1689 -87.3601 66° East  Level FlightAware Approximate
03:34PM 42.0464 -87.5044 56° Northeast 294 338 11,000  Level Chicago Center
03:35PM 42.2065 -87.2472 66° East  Level FlightAware Approximate
03:35PM 42.0994 -87.4056 54° Northeast 325 374 12,000  Level Chicago Center
03:36PM 42.1356 -87.2828 68° East 362 417 13,300 1,260 Climbing Chicago Center
03:37PM 42.1567 -87.1494 78° East 363 418 14,700 1,440 Climbing Chicago Center
03:38PM 42.1806 -86.9914 78° East 374 430 16,300 1,380 Climbing Chicago Center
03:39PM 42.2022 -86.8525 78° East 379 436 17,600 1,140 Climbing Chicago Center
03:40PM 42.2244 -86.7119 78° East 382 440 18,700 660 Climbing Chicago Center
03:41PM 42.2453 -86.5653 79° East 394 453 19,000 120 Climbing Chicago Center
03:42PM 42.2700 -86.4067 78° East 427 491 19,000  Level Chicago Center
03:43PM 42.2978 -86.2211 78° East 444 511 19,000 -60 Level Chicago Center
03:44PM 42.3311 -86.0697 73° East 429 494 18,900 -420 Descending Chicago Center
03:45PM 42.3750 -85.9242 68° East 422 486 18,200 -780 Descending Chicago Center
03:46PM 42.4214 -85.7764 67° East 429 494 17,300 -2,100 Descending Chicago Center
03:47PM 42.4722 -85.6094 68° East 407 468 13,900 -2,520 Descending Chicago Center
03:48PM 42.5133 -85.4772 67° East 390 449 12,200 -1,320 Descending Chicago Center
03:49PM 42.5531 -85.3422 68° East 387 445 11,200 -840 Descending Chicago Center
03:50PM 42.5936 -85.2114 67° East 383 441 10,500 -600 Descending Chicago Center
03:51PM 42.6344 -85.0842 66° East 375 432 10,000 -900 Descending Chicago Center
03:53PM 42.6664 -84.9831 67° East 305 351 8,700 -1,800 Descending Chicago Center
03:54PM 42.6603 -84.8508 94° East 293 337 6,400 -1,860 Descending Chicago Center
03:55PM 42.6683 -84.7481 84° East 279 321 4,900 -1,320 Descending Chicago Center
03:56PM 42.6747 -84.6519 85° East 264 304 3,700 -660 Descending Chicago Center
03:57PM 42.6811 -84.5553 85° East 259 298 3,600 -60 Descending Chicago Center
03:58PM 42.6883 -84.4444 85° East 259 298 3,600  Level Chicago Center